Main page
METAR-TAF:

METAR-TAF

Airports :

Oxford, England

Oxford Airport

latitude: 51-50-13N, longitude: 1-19-12W, elevation: 82 m

Current weather observation

The report was made 21 minutes ago, at 08:20 UTC
Wind 2 kt from the Southwest
Temperature 16°C
Humidity 77%
Pressure 1020 hPa
Visibility 10 km or more
Few clouds at a height of 1800 ft
Overcast at a height of 2600 ft

METAR: EGTK 230820Z 22002KT 9999 FEW018 OVC026 16/12 Q1020

Time: 09:41 (08:41 UTC)

Forecast

The report was made 40 minutes ago, at 08:01 UTC
Forecast valid from 23 at 09 UTC to 23 at 18 UTC
Wind 6 kt from the West
Visibility 10 km or more
Scattered clouds at a height of 3000 ft
Probability 30% :
Temporary
from 23 at 09 UTC to 23 at 10 UTC
Broken clouds at a height of 1200 ft

TAF: EGTK 230801Z 2309/2318 27006KT 9999 SCT030 PROB30 TEMPO 2309/2310 BKN012

Weather observations and forecasts of more than 4000 airports (METAR and TAF reports).

The available stations are represented by yellow and red dots on the map.

Hover mouse over dot to see the name of the station.

Then click to see weather observations and forecasts.

To change the map : click on the green buttons with a black cross to zoom in, on the green button with a dash to zoom out, or on the green arrows for adjacent maps.


METAR-TAF: